sensor_id;sensor_type;location;lat;lon;timestamp;P1;P2;P0
54553;PMS5003;40450;55.848;-3.572;2023-04-03T00:01:25;2;2;
54553;PMS5003;40450;55.848;-3.572;2023-04-03T00:03:55;2;2;
54553;PMS5003;40450;55.848;-3.572;2023-04-03T00:06:26;3;3;
54553;PMS5003;40450;55.848;-3.572;2023-04-03T00:08:56;3;3;
54553;PMS5003;40450;55.848;-3.572;2023-04-03T00:11:27;4;3;
54553;PMS5003;40450;55.848;-3.572;2023-04-03T00:13:57;5;2;
54553;PMS5003;40450;55.848;-3.572;2023-04-03T00:16:28;2;2;
54553;PMS5003;40450;55.848;-3.572;2023-04-03T00:18:58;3;3;
54553;PMS5003;40450;55.848;-3.572;2023-04-03T00:21:28;5;5;
54553;PMS5003;40450;55.848;-3.572;2023-04-03T00:23:58;5;3;
54553;PMS5003;40450;55.848;-3.572;2023-04-03T00:26:29;3;3;
54553;PMS5003;40450;55.848;-3.572;2023-04-03T00:29:00;2;2;
54553;PMS5003;40450;55.848;-3.572;2023-04-03T00:31:30;3;3;
54553;PMS5003;40450;55.848;-3.572;2023-04-03T00:34:00;3;2;
54553;PMS5003;40450;55.848;-3.572;2023-04-03T00:36:31;2;2;
54553;PMS5003;40450;55.848;-3.572;2023-04-03T00:39:01;2;2;
54553;PMS5003;40450;55.848;-3.572;2023-04-03T00:41:32;1;1;
54553;PMS5003;40450;55.848;-3.572;2023-04-03T00:46:32;3;3;
54553;PMS5003;40450;55.848;-3.572;2023-04-03T00:49:03;2;2;
54553;PMS5003;40450;55.848;-3.572;2023-04-03T00:51:33;2;2;
54553;PMS5003;40450;55.848;-3.572;2023-04-03T00:54:05;3;3;
54553;PMS5003;40450;55.848;-3.572;2023-04-03T00:56:34;3;3;
54553;PMS5003;40450;55.848;-3.572;2023-04-03T00:59:06;6;2;
54553;PMS5003;40450;55.848;-3.572;2023-04-03T01:01:35;3;3;
54553;PMS5003;40450;55.848;-3.572;2023-04-03T01:04:06;2;2;
54553;PMS5003;40450;55.848;-3.572;2023-04-03T01:06:36;4;4;
54553;PMS5003;40450;55.848;-3.572;2023-04-03T01:09:06;3;3;
54553;PMS5003;40450;55.848;-3.572;2023-04-03T01:11:37;3;3;
54553;PMS5003;40450;55.848;-3.572;2023-04-03T01:14:07;2;2;
54553;PMS5003;40450;55.848;-3.572;2023-04-03T01:16:38;1;1;
54553;PMS5003;40450;55.848;-3.572;2023-04-03T01:19:10;3;2;
54553;PMS5003;40450;55.848;-3.572;2023-04-03T01:21:45;2;2;
54553;PMS5003;40450;55.848;-3.572;2023-04-03T01:24:11;3;3;
54553;PMS5003;40450;55.848;-3.572;2023-04-03T01:26:40;2;2;
54553;PMS5003;40450;55.848;-3.572;2023-04-03T01:29:10;2;2;
54553;PMS5003;40450;55.848;-3.572;2023-04-03T01:31:44;3;3;
54553;PMS5003;40450;55.848;-3.572;2023-04-03T01:34:11;2;2;
54553;PMS5003;40450;55.848;-3.572;2023-04-03T01:36:41;2;2;
54553;PMS5003;40450;55.848;-3.572;2023-04-03T01:39:12;3;2;
54553;PMS5003;40450;55.848;-3.572;2023-04-03T01:41:42;3;3;
54553;PMS5003;40450;55.848;-3.572;2023-04-03T01:44:13;1;1;
54553;PMS5003;40450;55.848;-3.572;2023-04-03T01:46:43;1;1;
54553;PMS5003;40450;55.848;-3.572;2023-04-03T01:49:13;2;2;
54553;PMS5003;40450;55.848;-3.572;2023-04-03T01:51:44;2;2;
54553;PMS5003;40450;55.848;-3.572;2023-04-03T01:54:15;3;3;
54553;PMS5003;40450;55.848;-3.572;2023-04-03T01:56:45;3;3;
54553;PMS5003;40450;55.848;-3.572;2023-04-03T01:59:16;3;3;
54553;PMS5003;40450;55.848;-3.572;2023-04-03T02:01:46;2;2;
54553;PMS5003;40450;55.848;-3.572;2023-04-03T02:04:16;2;2;
54553;PMS5003;40450;55.848;-3.572;2023-04-03T02:06:47;3;2;
54553;PMS5003;40450;55.848;-3.572;2023-04-03T02:09:18;2;2;
54553;PMS5003;40450;55.848;-3.572;2023-04-03T02:11:47;5;3;
54553;PMS5003;40450;55.848;-3.572;2023-04-03T02:14:18;0;0;
54553;PMS5003;40450;55.848;-3.572;2023-04-03T02:16:48;2;2;
54553;PMS5003;40450;55.848;-3.572;2023-04-03T02:19:19;1;1;
54553;PMS5003;40450;55.848;-3.572;2023-04-03T02:21:50;3;2;
54553;PMS5003;40450;55.848;-3.572;2023-04-03T02:24:20;3;3;
54553;PMS5003;40450;55.848;-3.572;2023-04-03T02:26:50;2;2;
54553;PMS5003;40450;55.848;-3.572;2023-04-03T02:29:21;3;2;
54553;PMS5003;40450;55.848;-3.572;2023-04-03T02:31:51;1;1;
54553;PMS5003;40450;55.848;-3.572;2023-04-03T02:34:21;2;2;
54553;PMS5003;40450;55.848;-3.572;2023-04-03T02:36:52;2;2;
54553;PMS5003;40450;55.848;-3.572;2023-04-03T02:39:22;2;2;
54553;PMS5003;40450;55.848;-3.572;2023-04-03T02:41:52;3;3;
54553;PMS5003;40450;55.848;-3.572;2023-04-03T02:44:24;2;2;
54553;PMS5003;40450;55.848;-3.572;2023-04-03T02:46:59;2;2;
54553;PMS5003;40450;55.848;-3.572;2023-04-03T02:49:24;3;2;
54553;PMS5003;40450;55.848;-3.572;2023-04-03T02:51:54;4;3;
54553;PMS5003;40450;55.848;-3.572;2023-04-03T02:54:25;3;3;
54553;PMS5003;40450;55.848;-3.572;2023-04-03T02:56:55;2;2;
54553;PMS5003;40450;55.848;-3.572;2023-04-03T02:59:25;3;3;
54553;PMS5003;40450;55.848;-3.572;2023-04-03T03:01:56;2;2;
54553;PMS5003;40450;55.848;-3.572;2023-04-03T03:04:26;4;3;
54553;PMS5003;40450;55.848;-3.572;2023-04-03T03:06:57;2;1;
54553;PMS5003;40450;55.848;-3.572;2023-04-03T03:09:27;1;1;
54553;PMS5003;40450;55.848;-3.572;2023-04-03T03:11:58;3;2;
54553;PMS5003;40450;55.848;-3.572;2023-04-03T03:14:28;2;2;
54553;PMS5003;40450;55.848;-3.572;2023-04-03T03:16:58;3;1;
54553;PMS5003;40450;55.848;-3.572;2023-04-03T03:19:29;2;2;
54553;PMS5003;40450;55.848;-3.572;2023-04-03T03:21:59;1;1;
54553;PMS5003;40450;55.848;-3.572;2023-04-03T03:24:30;1;1;
54553;PMS5003;40450;55.848;-3.572;2023-04-03T03:27:00;1;1;
54553;PMS5003;40450;55.848;-3.572;2023-04-03T03:29:30;2;2;
54553;PMS5003;40450;55.848;-3.572;2023-04-03T03:32:01;2;2;
54553;PMS5003;40450;55.848;-3.572;2023-04-03T03:34:31;2;2;
54553;PMS5003;40450;55.848;-3.572;2023-04-03T03:37:02;4;4;
54553;PMS5003;40450;55.848;-3.572;2023-04-03T03:39:32;4;2;
54553;PMS5003;40450;55.848;-3.572;2023-04-03T03:42:03;4;2;
54553;PMS5003;40450;55.848;-3.572;2023-04-03T03:44:34;3;3;
54553;PMS5003;40450;55.848;-3.572;2023-04-03T03:47:04;6;4;
54553;PMS5003;40450;55.848;-3.572;2023-04-03T03:49:34;3;3;
54553;PMS5003;40450;55.848;-3.572;2023-04-03T03:52:04;3;3;
54553;PMS5003;40450;55.848;-3.572;2023-04-03T03:54:35;2;2;
54553;PMS5003;40450;55.848;-3.572;2023-04-03T03:57:05;2;2;
54553;PMS5003;40450;55.848;-3.572;2023-04-03T03:59:36;3;3;
54553;PMS5003;40450;55.848;-3.572;2023-04-03T04:02:06;5;3;
54553;PMS5003;40450;55.848;-3.572;2023-04-03T04:04:37;3;3;
54553;PMS5003;40450;55.848;-3.572;2023-04-03T04:07:07;2;2;
54553;PMS5003;40450;55.848;-3.572;2023-04-03T04:09:43;2;2;
54553;PMS5003;40450;55.848;-3.572;2023-04-03T04:12:08;2;2;
54553;PMS5003;40450;55.848;-3.572;2023-04-03T04:14:39;2;2;
54553;PMS5003;40450;55.848;-3.572;2023-04-03T04:17:09;1;1;
54553;PMS5003;40450;55.848;-3.572;2023-04-03T04:19:39;3;3;
54553;PMS5003;40450;55.848;-3.572;2023-04-03T04:22:10;3;2;
54553;PMS5003;40450;55.848;-3.572;2023-04-03T04:24:40;2;2;
54553;PMS5003;40450;55.848;-3.572;2023-04-03T04:27:11;3;2;
54553;PMS5003;40450;55.848;-3.572;2023-04-03T04:29:41;4;3;
54553;PMS5003;40450;55.848;-3.572;2023-04-03T04:32:11;1;1;
54553;PMS5003;40450;55.848;-3.572;2023-04-03T04:34:42;2;2;
54553;PMS5003;40450;55.848;-3.572;2023-04-03T04:37:12;1;1;
54553;PMS5003;40450;55.848;-3.572;2023-04-03T04:39:43;1;1;
54553;PMS5003;40450;55.848;-3.572;2023-04-03T04:42:13;2;2;
54553;PMS5003;40450;55.848;-3.572;2023-04-03T04:44:44;2;2;
54553;PMS5003;40450;55.848;-3.572;2023-04-03T04:47:14;4;2;
54553;PMS5003;40450;55.848;-3.572;2023-04-03T04:49:49;2;2;
54553;PMS5003;40450;55.848;-3.572;2023-04-03T04:52:15;2;2;
54553;PMS5003;40450;55.848;-3.572;2023-04-03T04:54:45;3;3;
54553;PMS5003;40450;55.848;-3.572;2023-04-03T04:57:15;1;1;
54553;PMS5003;40450;55.848;-3.572;2023-04-03T04:59:46;2;2;
54553;PMS5003;40450;55.848;-3.572;2023-04-03T05:02:17;2;2;
54553;PMS5003;40450;55.848;-3.572;2023-04-03T05:04:47;1;1;
54553;PMS5003;40450;55.848;-3.572;2023-04-03T05:07:17;3;3;
54553;PMS5003;40450;55.848;-3.572;2023-04-03T05:09:48;2;2;
54553;PMS5003;40450;55.848;-3.572;2023-04-03T05:12:18;2;2;
54553;PMS5003;40450;55.848;-3.572;2023-04-03T05:14:49;3;2;
54553;PMS5003;40450;55.848;-3.572;2023-04-03T05:17:19;2;2;
54553;PMS5003;40450;55.848;-3.572;2023-04-03T05:19:50;2;2;
54553;PMS5003;40450;55.848;-3.572;2023-04-03T05:22:20;3;3;
54553;PMS5003;40450;55.848;-3.572;2023-04-03T05:24:51;3;1;
54553;PMS5003;40450;55.848;-3.572;2023-04-03T05:27:21;5;2;
54553;PMS5003;40450;55.848;-3.572;2023-04-03T05:29:52;2;2;
54553;PMS5003;40450;55.848;-3.572;2023-04-03T05:32:21;6;3;
54553;PMS5003;40450;55.848;-3.572;2023-04-03T05:34:52;2;2;
54553;PMS5003;40450;55.848;-3.572;2023-04-03T05:37:22;2;2;
54553;PMS5003;40450;55.848;-3.572;2023-04-03T05:39:53;3;3;
54553;PMS5003;40450;55.848;-3.572;2023-04-03T05:42:23;2;2;
54553;PMS5003;40450;55.848;-3.572;2023-04-03T05:44:55;2;1;
54553;PMS5003;40450;55.848;-3.572;2023-04-03T05:47:24;3;3;
54553;PMS5003;40450;55.848;-3.572;2023-04-03T05:49:55;3;2;
54553;PMS5003;40450;55.848;-3.572;2023-04-03T05:52:26;2;2;
54553;PMS5003;40450;55.848;-3.572;2023-04-03T05:54:55;1;1;
54553;PMS5003;40450;55.848;-3.572;2023-04-03T05:57:26;3;3;
54553;PMS5003;40450;55.848;-3.572;2023-04-03T05:59:56;2;2;
54553;PMS5003;40450;55.848;-3.572;2023-04-03T06:02:27;2;2;
54553;PMS5003;40450;55.848;-3.572;2023-04-03T06:04:57;3;3;
54553;PMS5003;40450;55.848;-3.572;2023-04-03T06:07:28;2;2;
54553;PMS5003;40450;55.848;-3.572;2023-04-03T06:09:58;3;3;
54553;PMS5003;40450;55.848;-3.572;2023-04-03T06:12:29;3;3;
54553;PMS5003;40450;55.848;-3.572;2023-04-03T06:14:59;5;3;
54553;PMS5003;40450;55.848;-3.572;2023-04-03T06:17:30;2;2;
54553;PMS5003;40450;55.848;-3.572;2023-04-03T06:20:00;2;2;
54553;PMS5003;40450;55.848;-3.572;2023-04-03T06:22:31;3;3;
54553;PMS5003;40450;55.848;-3.572;2023-04-03T06:25:01;2;2;
54553;PMS5003;40450;55.848;-3.572;2023-04-03T06:27:32;2;2;
54553;PMS5003;40450;55.848;-3.572;2023-04-03T06:30:03;4;2;
54553;PMS5003;40450;55.848;-3.572;2023-04-03T06:32:33;3;3;
54553;PMS5003;40450;55.848;-3.572;2023-04-03T06:35:03;6;6;
54553;PMS5003;40450;55.848;-3.572;2023-04-03T06:37:34;4;4;
54553;PMS5003;40450;55.848;-3.572;2023-04-03T06:40:04;2;2;
54553;PMS5003;40450;55.848;-3.572;2023-04-03T06:42:35;3;3;
54553;PMS5003;40450;55.848;-3.572;2023-04-03T06:45:06;3;3;
54553;PMS5003;40450;55.848;-3.572;2023-04-03T06:47:35;3;3;
54553;PMS5003;40450;55.848;-3.572;2023-04-03T06:50:06;2;2;
54553;PMS5003;40450;55.848;-3.572;2023-04-03T06:52:36;5;5;
54553;PMS5003;40450;55.848;-3.572;2023-04-03T06:55:08;5;5;
54553;PMS5003;40450;55.848;-3.572;2023-04-03T06:57:38;2;2;
54553;PMS5003;40450;55.848;-3.572;2023-04-03T07:00:08;3;3;
54553;PMS5003;40450;55.848;-3.572;2023-04-03T07:02:38;2;2;
54553;PMS5003;40450;55.848;-3.572;2023-04-03T07:05:09;2;2;
54553;PMS5003;40450;55.848;-3.572;2023-04-03T07:07:40;4;4;
54553;PMS5003;40450;55.848;-3.572;2023-04-03T07:10:10;2;2;
54553;PMS5003;40450;55.848;-3.572;2023-04-03T07:12:40;3;3;
54553;PMS5003;40450;55.848;-3.572;2023-04-03T07:15:11;3;1;
54553;PMS5003;40450;55.848;-3.572;2023-04-03T07:17:41;4;3;
54553;PMS5003;40450;55.848;-3.572;2023-04-03T07:20:12;2;2;
54553;PMS5003;40450;55.848;-3.572;2023-04-03T07:22:42;4;4;
54553;PMS5003;40450;55.848;-3.572;2023-04-03T07:25:12;2;2;
54553;PMS5003;40450;55.848;-3.572;2023-04-03T07:27:43;5;5;
54553;PMS5003;40450;55.848;-3.572;2023-04-03T07:30:13;4;4;
54553;PMS5003;40450;55.848;-3.572;2023-04-03T07:32:43;4;4;
54553;PMS5003;40450;55.848;-3.572;2023-04-03T07:35:14;4;4;
54553;PMS5003;40450;55.848;-3.572;2023-04-03T07:37:44;5;4;
54553;PMS5003;40450;55.848;-3.572;2023-04-03T07:40:15;4;4;
54553;PMS5003;40450;55.848;-3.572;2023-04-03T07:42:45;5;5;
54553;PMS5003;40450;55.848;-3.572;2023-04-03T07:45:16;13;13;
54553;PMS5003;40450;55.848;-3.572;2023-04-03T07:47:46;9;7;
54553;PMS5003;40450;55.848;-3.572;2023-04-03T07:50:17;7;7;
54553;PMS5003;40450;55.848;-3.572;2023-04-03T07:52:47;4;4;
54553;PMS5003;40450;55.848;-3.572;2023-04-03T07:55:18;3;3;
54553;PMS5003;40450;55.848;-3.572;2023-04-03T07:57:48;6;3;
54553;PMS5003;40450;55.848;-3.572;2023-04-03T08:00:19;2;2;
54553;PMS5003;40450;55.848;-3.572;2023-04-03T08:02:49;2;2;
54553;PMS5003;40450;55.848;-3.572;2023-04-03T08:05:20;4;4;
54553;PMS5003;40450;55.848;-3.572;2023-04-03T08:07:50;3;3;
54553;PMS5003;40450;55.848;-3.572;2023-04-03T08:10:20;4;3;
54553;PMS5003;40450;55.848;-3.572;2023-04-03T08:12:51;2;2;
54553;PMS5003;40450;55.848;-3.572;2023-04-03T08:15:21;7;5;
54553;PMS5003;40450;55.848;-3.572;2023-04-03T08:17:51;4;4;
54553;PMS5003;40450;55.848;-3.572;2023-04-03T08:20:22;3;3;
54553;PMS5003;40450;55.848;-3.572;2023-04-03T08:22:52;3;3;
54553;PMS5003;40450;55.848;-3.572;2023-04-03T08:25:23;2;2;
54553;PMS5003;40450;55.848;-3.572;2023-04-03T08:27:53;3;2;
54553;PMS5003;40450;55.848;-3.572;2023-04-03T08:30:24;3;3;
54553;PMS5003;40450;55.848;-3.572;2023-04-03T08:32:54;4;3;
54553;PMS5003;40450;55.848;-3.572;2023-04-03T08:35:24;5;4;
54553;PMS5003;40450;55.848;-3.572;2023-04-03T08:37:55;4;4;
54553;PMS5003;40450;55.848;-3.572;2023-04-03T08:40:25;6;3;
54553;PMS5003;40450;55.848;-3.572;2023-04-03T08:42:59;3;3;
54553;PMS5003;40450;55.848;-3.572;2023-04-03T08:45:27;3;3;
54553;PMS5003;40450;55.848;-3.572;2023-04-03T08:47:57;3;3;
54553;PMS5003;40450;55.848;-3.572;2023-04-03T08:50:29;4;4;
54553;PMS5003;40450;55.848;-3.572;2023-04-03T08:52:57;5;5;
54553;PMS5003;40450;55.848;-3.572;2023-04-03T08:55:28;4;3;
54553;PMS5003;40450;55.848;-3.572;2023-04-03T08:57:59;2;2;
54553;PMS5003;40450;55.848;-3.572;2023-04-03T09:00:30;5;4;
54553;PMS5003;40450;55.848;-3.572;2023-04-03T09:02:59;2;2;
54553;PMS5003;40450;55.848;-3.572;2023-04-03T09:05:32;3;3;
54553;PMS5003;40450;55.848;-3.572;2023-04-03T09:08:00;3;3;
54553;PMS5003;40450;55.848;-3.572;2023-04-03T09:10:32;4;4;
54553;PMS5003;40450;55.848;-3.572;2023-04-03T09:13:02;4;4;
54553;PMS5003;40450;55.848;-3.572;2023-04-03T09:15:31;8;6;
54553;PMS5003;40450;55.848;-3.572;2023-04-03T09:18:03;3;3;
54553;PMS5003;40450;55.848;-3.572;2023-04-03T09:20:37;3;3;
54553;PMS5003;40450;55.848;-3.572;2023-04-03T09:23:03;3;3;
54553;PMS5003;40450;55.848;-3.572;2023-04-03T09:25:33;3;3;
54553;PMS5003;40450;55.848;-3.572;2023-04-03T09:28:03;5;5;
54553;PMS5003;40450;55.848;-3.572;2023-04-03T09:30:33;5;5;
54553;PMS5003;40450;55.848;-3.572;2023-04-03T09:33:04;2;2;
54553;PMS5003;40450;55.848;-3.572;2023-04-03T09:35:34;5;4;
54553;PMS5003;40450;55.848;-3.572;2023-04-03T09:40:36;4;3;
54553;PMS5003;40450;55.848;-3.572;2023-04-03T09:45:36;8;5;
54553;PMS5003;40450;55.848;-3.572;2023-04-03T09:48:07;5;4;
54553;PMS5003;40450;55.848;-3.572;2023-04-03T09:50:36;7;6;
54553;PMS5003;40450;55.848;-3.572;2023-04-03T09:53:11;5;3;
54553;PMS5003;40450;55.848;-3.572;2023-04-03T09:55:41;5;5;
54553;PMS5003;40450;55.848;-3.572;2023-04-03T09:58:22;5;3;
54553;PMS5003;40450;55.848;-3.572;2023-04-03T10:00:39;3;3;
54553;PMS5003;40450;55.848;-3.572;2023-04-03T10:03:20;7;5;
54553;PMS5003;40450;55.848;-3.572;2023-04-03T10:05:39;3;3;
54553;PMS5003;40450;55.848;-3.572;2023-04-03T10:08:10;5;5;
54553;PMS5003;40450;55.848;-3.572;2023-04-03T10:10:40;4;4;
54553;PMS5003;40450;55.848;-3.572;2023-04-03T10:13:11;3;3;
54553;PMS5003;40450;55.848;-3.572;2023-04-03T10:15:41;7;4;
54553;PMS5003;40450;55.848;-3.572;2023-04-03T10:18:17;6;6;
54553;PMS5003;40450;55.848;-3.572;2023-04-03T10:20:42;4;3;
54553;PMS5003;40450;55.848;-3.572;2023-04-03T10:23:15;6;4;
54553;PMS5003;40450;55.848;-3.572;2023-04-03T10:25:43;3;3;
54553;PMS5003;40450;55.848;-3.572;2023-04-03T10:28:14;3;3;
54553;PMS5003;40450;55.848;-3.572;2023-04-03T10:30:46;5;4;
54553;PMS5003;40450;55.848;-3.572;2023-04-03T10:35:44;4;4;
54553;PMS5003;40450;55.848;-3.572;2023-04-03T10:38:15;5;4;
54553;PMS5003;40450;55.848;-3.572;2023-04-03T10:40:46;6;4;
54553;PMS5003;40450;55.848;-3.572;2023-04-03T10:43:16;6;5;
54553;PMS5003;40450;55.848;-3.572;2023-04-03T10:45:48;6;4;
54553;PMS5003;40450;55.848;-3.572;2023-04-03T10:48:16;6;6;
54553;PMS5003;40450;55.848;-3.572;2023-04-03T10:50:47;3;3;
54553;PMS5003;40450;55.848;-3.572;2023-04-03T10:53:18;6;6;
54553;PMS5003;40450;55.848;-3.572;2023-04-03T10:55:48;8;8;
54553;PMS5003;40450;55.848;-3.572;2023-04-03T10:58:18;7;5;
54553;PMS5003;40450;55.848;-3.572;2023-04-03T11:00:47;5;5;
54553;PMS5003;40450;55.848;-3.572;2023-04-03T11:03:22;6;4;
54553;PMS5003;40450;55.848;-3.572;2023-04-03T11:05:48;3;3;
54553;PMS5003;40450;55.848;-3.572;2023-04-03T11:08:22;4;4;
54553;PMS5003;40450;55.848;-3.572;2023-04-03T11:10:49;5;5;
54553;PMS5003;40450;55.848;-3.572;2023-04-03T11:13:19;2;2;
54553;PMS5003;40450;55.848;-3.572;2023-04-03T11:15:49;4;3;
54553;PMS5003;40450;55.848;-3.572;2023-04-03T11:18:21;5;3;
54553;PMS5003;40450;55.848;-3.572;2023-04-03T11:20:52;6;4;
54553;PMS5003;40450;55.848;-3.572;2023-04-03T11:23:21;5;3;
54553;PMS5003;40450;55.848;-3.572;2023-04-03T11:25:53;4;4;
54553;PMS5003;40450;55.848;-3.572;2023-04-03T11:28:21;4;4;
54553;PMS5003;40450;55.848;-3.572;2023-04-03T11:30:54;3;3;
54553;PMS5003;40450;55.848;-3.572;2023-04-03T11:33:27;6;5;
54553;PMS5003;40450;55.848;-3.572;2023-04-03T11:35:53;3;3;
54553;PMS5003;40450;55.848;-3.572;2023-04-03T11:38:23;6;4;
54553;PMS5003;40450;55.848;-3.572;2023-04-03T11:40:54;6;5;
54553;PMS5003;40450;55.848;-3.572;2023-04-03T11:43:25;8;6;
54553;PMS5003;40450;55.848;-3.572;2023-04-03T11:45:55;6;6;
54553;PMS5003;40450;55.848;-3.572;2023-04-03T11:50:54;7;6;
54553;PMS5003;40450;55.848;-3.572;2023-04-03T11:53:27;6;3;
54553;PMS5003;40450;55.848;-3.572;2023-04-03T11:55:56;5;5;
54553;PMS5003;40450;55.848;-3.572;2023-04-03T11:58:26;4;4;
54553;PMS5003;40450;55.848;-3.572;2023-04-03T12:00:57;4;4;
54553;PMS5003;40450;55.848;-3.572;2023-04-03T12:03:30;4;4;
54553;PMS5003;40450;55.848;-3.572;2023-04-03T12:06:42;3;3;
54553;PMS5003;40450;55.848;-3.572;2023-04-03T12:08:27;5;4;
54553;PMS5003;40450;55.848;-3.572;2023-04-03T12:13:27;4;4;
54553;PMS5003;40450;55.848;-3.572;2023-04-03T12:15:58;3;3;
54553;PMS5003;40450;55.848;-3.572;2023-04-03T12:20:58;7;3;
54553;PMS5003;40450;55.848;-3.572;2023-04-03T12:23:30;5;3;
54553;PMS5003;40450;55.848;-3.572;2023-04-03T12:26:02;4;4;
54553;PMS5003;40450;55.848;-3.572;2023-04-03T12:28:31;3;3;
54553;PMS5003;40450;55.848;-3.572;2023-04-03T12:31:00;3;3;
54553;PMS5003;40450;55.848;-3.572;2023-04-03T12:33:32;5;5;
54553;PMS5003;40450;55.848;-3.572;2023-04-03T12:36:03;4;2;
54553;PMS5003;40450;55.848;-3.572;2023-04-03T12:41:07;3;3;
54553;PMS5003;40450;55.848;-3.572;2023-04-03T12:43:35;4;3;
54553;PMS5003;40450;55.848;-3.572;2023-04-03T12:46:03;3;3;
54553;PMS5003;40450;55.848;-3.572;2023-04-03T12:48:33;5;5;
54553;PMS5003;40450;55.848;-3.572;2023-04-03T12:51:03;3;3;
54553;PMS5003;40450;55.848;-3.572;2023-04-03T12:53:33;3;3;
54553;PMS5003;40450;55.848;-3.572;2023-04-03T12:58:34;5;3;
54553;PMS5003;40450;55.848;-3.572;2023-04-03T13:01:08;3;3;
54553;PMS5003;40450;55.848;-3.572;2023-04-03T13:03:34;4;4;
54553;PMS5003;40450;55.848;-3.572;2023-04-03T13:06:05;5;5;
54553;PMS5003;40450;55.848;-3.572;2023-04-03T13:08:35;5;4;
54553;PMS5003;40450;55.848;-3.572;2023-04-03T13:11:07;4;4;
54553;PMS5003;40450;55.848;-3.572;2023-04-03T13:13:36;4;4;
54553;PMS5003;40450;55.848;-3.572;2023-04-03T13:16:08;5;4;
54553;PMS5003;40450;55.848;-3.572;2023-04-03T13:18:37;6;3;
54553;PMS5003;40450;55.848;-3.572;2023-04-03T13:21:10;3;3;
54553;PMS5003;40450;55.848;-3.572;2023-04-03T13:23:38;5;3;
54553;PMS5003;40450;55.848;-3.572;2023-04-03T13:26:08;3;3;
54553;PMS5003;40450;55.848;-3.572;2023-04-03T13:28:39;3;3;
54553;PMS5003;40450;55.848;-3.572;2023-04-03T13:31:15;3;3;
54553;PMS5003;40450;55.848;-3.572;2023-04-03T13:33:39;2;2;
54553;PMS5003;40450;55.848;-3.572;2023-04-03T13:36:10;2;2;
54553;PMS5003;40450;55.848;-3.572;2023-04-03T13:38:39;2;2;
54553;PMS5003;40450;55.848;-3.572;2023-04-03T13:43:40;2;2;
54553;PMS5003;40450;55.848;-3.572;2023-04-03T13:48:41;2;2;
54553;PMS5003;40450;55.848;-3.572;2023-04-03T13:53:42;3;3;
54553;PMS5003;40450;55.848;-3.572;2023-04-03T13:56:16;4;3;
54553;PMS5003;40450;55.848;-3.572;2023-04-03T13:58:51;4;2;
54553;PMS5003;40450;55.848;-3.572;2023-04-03T14:01:16;5;5;
54553;PMS5003;40450;55.848;-3.572;2023-04-03T14:03:44;4;4;
54553;PMS5003;40450;55.848;-3.572;2023-04-03T14:06:14;4;4;
54553;PMS5003;40450;55.848;-3.572;2023-04-03T14:08:43;4;4;
54553;PMS5003;40450;55.848;-3.572;2023-04-03T14:11:14;4;4;
54553;PMS5003;40450;55.848;-3.572;2023-04-03T14:13:44;5;4;
54553;PMS5003;40450;55.848;-3.572;2023-04-03T14:16:15;5;3;
54553;PMS5003;40450;55.848;-3.572;2023-04-03T14:18:44;6;3;
54553;PMS5003;40450;55.848;-3.572;2023-04-03T14:21:15;4;4;
54553;PMS5003;40450;55.848;-3.572;2023-04-03T14:23:45;3;3;
54553;PMS5003;40450;55.848;-3.572;2023-04-03T14:26:16;7;7;
54553;PMS5003;40450;55.848;-3.572;2023-04-03T14:28:46;8;7;
54553;PMS5003;40450;55.848;-3.572;2023-04-03T14:31:17;8;6;
54553;PMS5003;40450;55.848;-3.572;2023-04-03T14:33:46;10;9;
54553;PMS5003;40450;55.848;-3.572;2023-04-03T14:36:18;14;10;
54553;PMS5003;40450;55.848;-3.572;2023-04-03T14:38:48;8;8;
54553;PMS5003;40450;55.848;-3.572;2023-04-03T14:41:19;11;10;
54553;PMS5003;40450;55.848;-3.572;2023-04-03T14:43:48;7;7;
54553;PMS5003;40450;55.848;-3.572;2023-04-03T14:46:19;8;8;
54553;PMS5003;40450;55.848;-3.572;2023-04-03T14:48:49;20;20;
54553;PMS5003;40450;55.848;-3.572;2023-04-03T14:51:19;22;21;
54553;PMS5003;40450;55.848;-3.572;2023-04-03T14:53:49;23;21;
54553;PMS5003;40450;55.848;-3.572;2023-04-03T14:56:21;24;23;
54553;PMS5003;40450;55.848;-3.572;2023-04-03T14:58:51;36;32;
54553;PMS5003;40450;55.848;-3.572;2023-04-03T15:01:21;21;19;
54553;PMS5003;40450;55.848;-3.572;2023-04-03T15:03:51;13;13;
54553;PMS5003;40450;55.848;-3.572;2023-04-03T15:06:22;8;7;
54553;PMS5003;40450;55.848;-3.572;2023-04-03T15:08:52;5;5;
54553;PMS5003;40450;55.848;-3.572;2023-04-03T15:11:22;6;5;
54553;PMS5003;40450;55.848;-3.572;2023-04-03T15:13:53;5;5;
54553;PMS5003;40450;55.848;-3.572;2023-04-03T15:16:24;5;5;
54553;PMS5003;40450;55.848;-3.572;2023-04-03T15:18:53;6;6;
54553;PMS5003;40450;55.848;-3.572;2023-04-03T15:21:23;7;6;
54553;PMS5003;40450;55.848;-3.572;2023-04-03T15:23:54;7;6;
54553;PMS5003;40450;55.848;-3.572;2023-04-03T15:26:24;5;5;
54553;PMS5003;40450;55.848;-3.572;2023-04-03T15:28:54;7;6;
54553;PMS5003;40450;55.848;-3.572;2023-04-03T15:31:26;10;9;
54553;PMS5003;40450;55.848;-3.572;2023-04-03T15:33:57;7;7;
54553;PMS5003;40450;55.848;-3.572;2023-04-03T15:36:26;10;8;
54553;PMS5003;40450;55.848;-3.572;2023-04-03T15:38:56;3;3;
54553;PMS5003;40450;55.848;-3.572;2023-04-03T15:41:27;4;4;
54553;PMS5003;40450;55.848;-3.572;2023-04-03T15:43:57;3;3;
54553;PMS5003;40450;55.848;-3.572;2023-04-03T15:46:28;2;2;
54553;PMS5003;40450;55.848;-3.572;2023-04-03T15:48:58;4;4;
54553;PMS5003;40450;55.848;-3.572;2023-04-03T15:51:29;7;5;
54553;PMS5003;40450;55.848;-3.572;2023-04-03T15:53:59;2;2;
54553;PMS5003;40450;55.848;-3.572;2023-04-03T15:56:30;6;6;
54553;PMS5003;40450;55.848;-3.572;2023-04-03T15:59:00;1;1;
54553;PMS5003;40450;55.848;-3.572;2023-04-03T16:01:31;5;5;
54553;PMS5003;40450;55.848;-3.572;2023-04-03T16:04:01;4;4;
54553;PMS5003;40450;55.848;-3.572;2023-04-03T16:06:31;1;1;
54553;PMS5003;40450;55.848;-3.572;2023-04-03T16:09:02;2;2;
54553;PMS5003;40450;55.848;-3.572;2023-04-03T16:11:32;1;1;
54553;PMS5003;40450;55.848;-3.572;2023-04-03T16:14:02;1;1;
54553;PMS5003;40450;55.848;-3.572;2023-04-03T16:16:33;3;2;
54553;PMS5003;40450;55.848;-3.572;2023-04-03T16:19:03;0;0;
54553;PMS5003;40450;55.848;-3.572;2023-04-03T16:21:33;2;2;
54553;PMS5003;40450;55.848;-3.572;2023-04-03T16:24:04;2;2;
54553;PMS5003;40450;55.848;-3.572;2023-04-03T16:26:34;1;1;
54553;PMS5003;40450;55.848;-3.572;2023-04-03T16:29:06;3;3;
54553;PMS5003;40450;55.848;-3.572;2023-04-03T16:31:35;5;3;
54553;PMS5003;40450;55.848;-3.572;2023-04-03T16:34:05;5;4;
54553;PMS5003;40450;55.848;-3.572;2023-04-03T16:36:36;8;8;
54553;PMS5003;40450;55.848;-3.572;2023-04-03T16:39:07;2;1;
54553;PMS5003;40450;55.848;-3.572;2023-04-03T16:41:37;1;1;
54553;PMS5003;40450;55.848;-3.572;2023-04-03T16:44:07;1;1;
54553;PMS5003;40450;55.848;-3.572;2023-04-03T16:46:38;3;2;
54553;PMS5003;40450;55.848;-3.572;2023-04-03T16:49:08;1;1;
54553;PMS5003;40450;55.848;-3.572;2023-04-03T16:51:38;2;2;
54553;PMS5003;40450;55.848;-3.572;2023-04-03T16:54:09;1;1;
54553;PMS5003;40450;55.848;-3.572;2023-04-03T16:56:40;5;5;
54553;PMS5003;40450;55.848;-3.572;2023-04-03T16:59:09;4;4;
54553;PMS5003;40450;55.848;-3.572;2023-04-03T17:01:41;4;4;
54553;PMS5003;40450;55.848;-3.572;2023-04-03T17:04:10;3;1;
54553;PMS5003;40450;55.848;-3.572;2023-04-03T17:06:40;2;2;
54553;PMS5003;40450;55.848;-3.572;2023-04-03T17:09:11;2;2;
54553;PMS5003;40450;55.848;-3.572;2023-04-03T17:11:41;3;3;
54553;PMS5003;40450;55.848;-3.572;2023-04-03T17:14:11;4;4;
54553;PMS5003;40450;55.848;-3.572;2023-04-03T17:16:42;4;3;
54553;PMS5003;40450;55.848;-3.572;2023-04-03T17:19:12;4;2;
54553;PMS5003;40450;55.848;-3.572;2023-04-03T17:21:43;4;4;
54553;PMS5003;40450;55.848;-3.572;2023-04-03T17:24:13;2;2;